sensor_id;sensor_type;location;lat;lon;timestamp;pressure;altitude;pressure_sealevel;temperature;humidity
3142;BME280;1581;51.568;6.998;2023-11-21T00:01:21;100333.13;;;11.24;100.00
3142;BME280;1581;51.568;6.998;2023-11-21T00:03:49;100336.22;;;11.28;100.00
3142;BME280;1581;51.568;6.998;2023-11-21T00:06:16;100333.13;;;11.24;100.00
3142;BME280;1581;51.568;6.998;2023-11-21T00:08:44;100331.06;;;11.20;100.00
3142;BME280;1581;51.568;6.998;2023-11-21T00:11:11;100336.81;;;11.17;100.00
3142;BME280;1581;51.568;6.998;2023-11-21T00:13:40;100323.69;;;11.28;100.00
3142;BME280;1581;51.568;6.998;2023-11-21T00:16:08;100335.59;;;11.26;100.00
3142;BME280;1581;51.568;6.998;2023-11-21T00:18:36;100326.97;;;11.24;100.00
3142;BME280;1581;51.568;6.998;2023-11-21T00:21:04;100336.19;;;11.21;100.00
3142;BME280;1581;51.568;6.998;2023-11-21T00:23:32;100339.06;;;11.20;100.00
3142;BME280;1581;51.568;6.998;2023-11-21T00:25:59;100342.97;;;11.24;100.00
3142;BME280;1581;51.568;6.998;2023-11-21T00:28:27;100340.09;;;11.25;100.00
3142;BME280;1581;51.568;6.998;2023-11-21T00:30:56;100342.16;;;11.30;100.00
3142;BME280;1581;51.568;6.998;2023-11-21T00:33:23;100338.06;;;11.34;100.00
3142;BME280;1581;51.568;6.998;2023-11-21T00:35:51;100341.50;;;11.15;100.00
3142;BME280;1581;51.568;6.998;2023-11-21T00:38:18;100344.19;;;11.21;100.00
3142;BME280;1581;51.568;6.998;2023-11-21T00:40:46;100338.06;;;11.21;100.00
3142;BME280;1581;51.568;6.998;2023-11-21T00:43:14;100345.44;;;11.25;100.00
3142;BME280;1581;51.568;6.998;2023-11-21T00:45:41;100346.88;;;11.21;100.00
3142;BME280;1581;51.568;6.998;2023-11-21T00:48:10;100339.66;;;11.09;100.00
3142;BME280;1581;51.568;6.998;2023-11-21T00:50:39;100341.69;;;11.07;100.00
3142;BME280;1581;51.568;6.998;2023-11-21T00:53:07;100345.59;;;11.05;100.00
3142;BME280;1581;51.568;6.998;2023-11-21T00:55:34;100335.72;;;10.92;100.00
3142;BME280;1581;51.568;6.998;2023-11-21T00:58:02;100337.59;;;11.05;100.00
3142;BME280;1581;51.568;6.998;2023-11-21T01:00:30;100329.19;;;11.14;100.00
3142;BME280;1581;51.568;6.998;2023-11-21T01:02:58;100342.09;;;11.04;100.00
3142;BME280;1581;51.568;6.998;2023-11-21T01:05:27;100340.50;;;11.16;100.00
3142;BME280;1581;51.568;6.998;2023-11-21T01:07:54;100344.78;;;11.11;100.00
3142;BME280;1581;51.568;6.998;2023-11-21T01:10:22;100351.75;;;11.12;100.00
3142;BME280;1581;51.568;6.998;2023-11-21T01:12:50;100353.00;;;11.09;100.00
3142;BME280;1581;51.568;6.998;2023-11-21T01:15:18;100352.38;;;11.07;100.00
3142;BME280;1581;51.568;6.998;2023-11-21T01:17:47;100355.44;;;10.98;100.00
3142;BME280;1581;51.568;6.998;2023-11-21T01:20:14;100365.28;;;11.04;100.00
3142;BME280;1581;51.568;6.998;2023-11-21T01:22:47;100364.00;;;10.93;100.00
3142;BME280;1581;51.568;6.998;2023-11-21T01:25:16;100368.53;;;10.93;100.00
3142;BME280;1581;51.568;6.998;2023-11-21T01:27:44;100369.56;;;10.98;100.00
3142;BME280;1581;51.568;6.998;2023-11-21T01:30:12;100368.97;;;11.03;100.00
3142;BME280;1581;51.568;6.998;2023-11-21T01:32:41;100369.56;;;10.98;100.00
3142;BME280;1581;51.568;6.998;2023-11-21T01:35:10;100367.53;;;11.00;100.00
3142;BME280;1581;51.568;6.998;2023-11-21T01:37:38;100373.66;;;11.01;100.00
3142;BME280;1581;51.568;6.998;2023-11-21T01:40:11;100376.91;;;10.90;100.00
3142;BME280;1581;51.568;6.998;2023-11-21T01:42:40;100377.94;;;10.89;100.00
3142;BME280;1581;51.568;6.998;2023-11-21T01:45:10;100372.81;;;10.87;100.00
3142;BME280;1581;51.568;6.998;2023-11-21T01:47:39;100376.72;;;10.91;100.00
3142;BME280;1581;51.568;6.998;2023-11-21T01:50:09;100374.66;;;10.93;100.00
3142;BME280;1581;51.568;6.998;2023-11-21T01:52:39;100377.31;;;10.93;100.00
3142;BME280;1581;51.568;6.998;2023-11-21T01:55:09;100376.94;;;10.96;100.00
3142;BME280;1581;51.568;6.998;2023-11-21T01:57:38;100378.78;;;10.96;100.00
3142;BME280;1581;51.568;6.998;2023-11-21T02:00:07;100382.44;;;10.88;100.00
3142;BME280;1581;51.568;6.998;2023-11-21T02:02:42;100386.94;;;10.81;100.00
3142;BME280;1581;51.568;6.998;2023-11-21T02:05:11;100382.66;;;10.87;100.00
3142;BME280;1581;51.568;6.998;2023-11-21T02:07:39;100381.81;;;10.86;100.00
3142;BME280;1581;51.568;6.998;2023-11-21T02:10:09;100390.44;;;10.88;100.00
3142;BME280;1581;51.568;6.998;2023-11-21T02:12:41;100388.16;;;10.85;100.00
3142;BME280;1581;51.568;6.998;2023-11-21T02:15:10;100391.84;;;10.84;100.00
3142;BME280;1581;51.568;6.998;2023-11-21T02:17:46;100392.28;;;10.81;100.00
3142;BME280;1581;51.568;6.998;2023-11-21T02:20:18;100394.31;;;10.79;100.00
3142;BME280;1581;51.568;6.998;2023-11-21T02:22:50;100393.47;;;10.79;100.00
3142;BME280;1581;51.568;6.998;2023-11-21T02:25:19;100393.47;;;10.79;100.00
3142;BME280;1581;51.568;6.998;2023-11-21T02:27:46;100402.31;;;10.79;100.00
3142;BME280;1581;51.568;6.998;2023-11-21T02:30:15;100404.13;;;10.79;100.00
3142;BME280;1581;51.568;6.998;2023-11-21T02:32:43;100403.66;;;10.69;100.00
3142;BME280;1581;51.568;6.998;2023-11-21T02:35:10;100400.19;;;10.68;100.00
3142;BME280;1581;51.568;6.998;2023-11-21T02:37:38;100404.50;;;10.69;100.00
3142;BME280;1581;51.568;6.998;2023-11-21T02:40:10;100410.03;;;10.68;100.00
3142;BME280;1581;51.568;6.998;2023-11-21T02:42:39;100407.94;;;10.63;100.00
3142;BME280;1581;51.568;6.998;2023-11-21T02:45:08;100416.56;;;10.65;100.00
3142;BME280;1581;51.568;6.998;2023-11-21T02:47:38;100414.53;;;10.67;100.00
3142;BME280;1581;51.568;6.998;2023-11-21T02:50:07;100420.25;;;10.64;100.00
3142;BME280;1581;51.568;6.998;2023-11-21T02:52:35;100411.66;;;10.69;100.00
3142;BME280;1581;51.568;6.998;2023-11-21T02:55:04;100421.91;;;10.65;100.00
3142;BME280;1581;51.568;6.998;2023-11-21T02:57:33;100426.59;;;10.63;100.00
3142;BME280;1581;51.568;6.998;2023-11-21T03:00:01;100424.34;;;10.60;100.00
3142;BME280;1581;51.568;6.998;2023-11-21T03:02:30;100429.03;;;10.58;100.00
3142;BME280;1581;51.568;6.998;2023-11-21T03:04:58;100421.03;;;10.58;100.00
3142;BME280;1581;51.568;6.998;2023-11-21T03:07:26;100421.09;;;10.65;100.00
3142;BME280;1581;51.568;6.998;2023-11-21T03:09:53;100418.00;;;10.61;100.00
3142;BME280;1581;51.568;6.998;2023-11-21T03:12:21;100435.00;;;10.60;100.00
3142;BME280;1581;51.568;6.998;2023-11-21T03:14:50;100430.25;;;10.56;100.00
3142;BME280;1581;51.568;6.998;2023-11-21T03:17:17;100431.88;;;10.50;100.00
3142;BME280;1581;51.568;6.998;2023-11-21T03:19:45;100428.34;;;10.50;100.00
3142;BME280;1581;51.568;6.998;2023-11-21T03:22:12;100424.50;;;10.52;100.00
3142;BME280;1581;51.568;6.998;2023-11-21T03:24:40;100432.50;;;10.52;100.00
3142;BME280;1581;51.568;6.998;2023-11-21T03:27:07;100434.13;;;10.53;100.00
3142;BME280;1581;51.568;6.998;2023-11-21T03:29:35;100436.56;;;10.48;100.00
3142;BME280;1581;51.568;6.998;2023-11-21T03:32:04;100435.13;;;10.46;100.00
3142;BME280;1581;51.568;6.998;2023-11-21T03:34:33;100451.69;;;10.41;100.00
3142;BME280;1581;51.568;6.998;2023-11-21T03:37:00;100448.38;;;10.39;100.00
3142;BME280;1581;51.568;6.998;2023-11-21T03:39:28;100454.94;;;10.37;100.00
3142;BME280;1581;51.568;6.998;2023-11-21T03:41:55;100459.84;;;10.40;100.00
3142;BME280;1581;51.568;6.998;2023-11-21T03:44:23;100453.72;;;10.39;100.00
3142;BME280;1581;51.568;6.998;2023-11-21T03:46:50;100465.19;;;10.40;100.00
3142;BME280;1581;51.568;6.998;2023-11-21T03:49:19;100460.47;;;10.42;100.00
3142;BME280;1581;51.568;6.998;2023-11-21T03:51:47;100470.13;;;10.43;100.00
3142;BME280;1581;51.568;6.998;2023-11-21T03:54:14;100470.97;;;10.50;100.00
3142;BME280;1581;51.568;6.998;2023-11-21T03:56:42;100470.59;;;10.53;100.00
3142;BME280;1581;51.568;6.998;2023-11-21T03:59:09;100477.16;;;10.50;100.00
3142;BME280;1581;51.568;6.998;2023-11-21T04:01:37;100478.66;;;10.59;100.00
3142;BME280;1581;51.568;6.998;2023-11-21T04:04:05;100478.44;;;10.61;100.00
3142;BME280;1581;51.568;6.998;2023-11-21T04:06:34;100480.72;;;10.64;100.00
3142;BME280;1581;51.568;6.998;2023-11-21T04:09:04;100485.66;;;10.67;100.00
3142;BME280;1581;51.568;6.998;2023-11-21T04:11:31;100483.38;;;10.64;100.00
3142;BME280;1581;51.568;6.998;2023-11-21T04:13:59;100483.81;;;10.67;100.00
3142;BME280;1581;51.568;6.998;2023-11-21T04:16:27;100484.25;;;10.71;100.00
3142;BME280;1581;51.568;6.998;2023-11-21T04:18:54;100485.88;;;10.72;100.00
3142;BME280;1581;51.568;6.998;2023-11-21T04:21:23;100487.88;;;10.63;100.00
3142;BME280;1581;51.568;6.998;2023-11-21T04:23:52;100485.88;;;10.72;100.00
3142;BME280;1581;51.568;6.998;2023-11-21T04:26:19;100483.47;;;10.77;100.00
3142;BME280;1581;51.568;6.998;2023-11-21T04:28:47;100484.34;;;10.84;100.00
3142;BME280;1581;51.568;6.998;2023-11-21T04:31:15;100486.38;;;10.82;100.00
3142;BME280;1581;51.568;6.998;2023-11-21T04:33:43;100486.41;;;10.88;100.00
3142;BME280;1581;51.568;6.998;2023-11-21T04:36:11;100490.94;;;10.94;100.00
3142;BME280;1581;51.568;6.998;2023-11-21T04:38:38;100491.94;;;10.87;100.00
3142;BME280;1581;51.568;6.998;2023-11-21T04:41:08;100490.47;;;10.84;100.00
3142;BME280;1581;51.568;6.998;2023-11-21T04:43:35;100492.38;;;10.90;100.00
3142;BME280;1581;51.568;6.998;2023-11-21T04:46:03;100492.38;;;10.90;100.00
3142;BME280;1581;51.568;6.998;2023-11-21T04:48:31;100492.38;;;10.90;100.00
3142;BME280;1581;51.568;6.998;2023-11-21T04:50:59;100496.41;;;10.80;100.00
3142;BME280;1581;51.568;6.998;2023-11-21T04:53:26;100497.81;;;10.76;100.00
3142;BME280;1581;51.568;6.998;2023-11-21T04:55:54;100498.41;;;10.71;100.00
3142;BME280;1581;51.568;6.998;2023-11-21T04:58:23;100509.06;;;10.71;100.00
3142;BME280;1581;51.568;6.998;2023-11-21T05:00:50;100506.72;;;10.62;100.00
3142;BME280;1581;51.568;6.998;2023-11-21T05:03:17;100507.75;;;10.61;100.00
3142;BME280;1581;51.568;6.998;2023-11-21T05:05:44;100517.59;;;10.60;100.00
3142;BME280;1581;51.568;6.998;2023-11-21T05:08:12;100514.03;;;10.53;100.00
3142;BME280;1581;51.568;6.998;2023-11-21T05:10:45;100513.50;;;10.64;100.00
3142;BME280;1581;51.568;6.998;2023-11-21T05:13:13;100517.97;;;10.57;100.00
3142;BME280;1581;51.568;6.998;2023-11-21T05:15:45;100519.00;;;10.56;100.00
3142;BME280;1581;51.568;6.998;2023-11-21T05:18:12;100527.56;;;10.52;100.00
3142;BME280;1581;51.568;6.998;2023-11-21T05:20:41;100531.44;;;10.49;100.00
3142;BME280;1581;51.568;6.998;2023-11-21T05:23:08;100524.03;;;10.45;100.00
3142;BME280;1581;51.568;6.998;2023-11-21T05:25:36;100527.94;;;10.49;100.00
3142;BME280;1581;51.568;6.998;2023-11-21T05:28:04;100530.66;;;10.55;100.00
3142;BME280;1581;51.568;6.998;2023-11-21T05:30:32;100534.91;;;10.50;100.00
3142;BME280;1581;51.568;6.998;2023-11-21T05:33:01;100538.16;;;10.45;100.00
3142;BME280;1581;51.568;6.998;2023-11-21T05:35:29;100547.81;;;10.46;100.00
3142;BME280;1581;51.568;6.998;2023-11-21T05:37:57;100549.25;;;10.49;100.00
3142;BME280;1581;51.568;6.998;2023-11-21T05:40:24;100543.31;;;10.47;100.00
3142;BME280;1581;51.568;6.998;2023-11-21T05:42:55;100549.41;;;10.41;100.00
3142;BME280;1581;51.568;6.998;2023-11-21T05:45:23;100545.72;;;10.42;100.00
3142;BME280;1581;51.568;6.998;2023-11-21T05:47:50;100558.41;;;10.40;100.00
3142;BME280;1581;51.568;6.998;2023-11-21T05:50:19;100572.69;;;10.32;100.00
3142;BME280;1581;51.568;6.998;2023-11-21T05:52:48;100570.41;;;10.29;100.00
3142;BME280;1581;51.568;6.998;2023-11-21T05:55:16;100574.28;;;10.27;100.00
3142;BME280;1581;51.568;6.998;2023-11-21T05:57:44;100580.63;;;10.26;100.00
3142;BME280;1581;51.568;6.998;2023-11-21T06:00:14;100584.22;;;10.19;100.00
3142;BME280;1581;51.568;6.998;2023-11-21T06:02:46;100582.13;;;10.14;100.00
3142;BME280;1581;51.568;6.998;2023-11-21T06:05:21;100589.47;;;10.12;100.00
3142;BME280;1581;51.568;6.998;2023-11-21T06:07:52;100592.34;;;10.11;100.00
3142;BME280;1581;51.568;6.998;2023-11-21T06:10:23;100596.09;;;10.16;100.00
3142;BME280;1581;51.568;6.998;2023-11-21T06:12:54;100602.59;;;10.14;100.00
3142;BME280;1581;51.568;6.998;2023-11-21T06:15:27;100603.00;;;10.11;100.00
3142;BME280;1581;51.568;6.998;2023-11-21T06:17:59;100606.47;;;10.11;100.00
3142;BME280;1581;51.568;6.998;2023-11-21T06:20:29;100611.41;;;10.14;100.00
3142;BME280;1581;51.568;6.998;2023-11-21T06:22:57;100616.81;;;10.21;100.00
3142;BME280;1581;51.568;6.998;2023-11-21T06:25:24;100614.16;;;10.21;100.00
3142;BME280;1581;51.568;6.998;2023-11-21T06:27:53;100627.06;;;10.24;100.00
3142;BME280;1581;51.568;6.998;2023-11-21T06:30:20;100620.28;;;10.21;100.00
3142;BME280;1581;51.568;6.998;2023-11-21T06:32:49;100624.41;;;10.24;100.00
3142;BME280;1581;51.568;6.998;2023-11-21T06:35:17;100631.38;;;10.25;100.00
3142;BME280;1581;51.568;6.998;2023-11-21T06:37:48;100633.22;;;10.24;100.00
3142;BME280;1581;51.568;6.998;2023-11-21T06:40:18;100634.97;;;10.31;100.00
3142;BME280;1581;51.568;6.998;2023-11-21T06:42:46;100647.28;;;10.32;100.00
3142;BME280;1581;51.568;6.998;2023-11-21T06:45:14;100652.41;;;10.34;100.00
3142;BME280;1581;51.568;6.998;2023-11-21T06:47:43;100653.41;;;10.33;100.00
3142;BME280;1581;51.568;6.998;2023-11-21T06:50:10;100656.16;;;10.39;100.00
3142;BME280;1581;51.568;6.998;2023-11-21T06:52:38;100666.22;;;10.44;100.00
3142;BME280;1581;51.568;6.998;2023-11-21T06:55:08;100666.47;;;10.49;100.00
3142;BME280;1581;51.568;6.998;2023-11-21T06:57:36;100663.22;;;10.53;100.00
3142;BME280;1581;51.568;6.998;2023-11-21T07:00:06;100676.81;;;10.58;100.00
3142;BME280;1581;51.568;6.998;2023-11-21T07:02:35;100670.69;;;10.58;100.00
3142;BME280;1581;51.568;6.998;2023-11-21T07:05:03;100674.97;;;10.59;100.00
3142;BME280;1581;51.568;6.998;2023-11-21T07:07:31;100682.59;;;10.62;100.00
3142;BME280;1581;51.568;6.998;2023-11-21T07:10:01;100677.06;;;10.63;100.00
3142;BME280;1581;51.568;6.998;2023-11-21T07:12:30;100678.72;;;10.64;100.00
3142;BME280;1581;51.568;6.998;2023-11-21T07:14:58;100683.47;;;10.69;100.00
3142;BME280;1581;51.568;6.998;2023-11-21T07:17:26;100685.78;;;10.72;100.00
3142;BME280;1581;51.568;6.998;2023-11-21T07:19:54;100689.28;;;10.72;100.00
3142;BME280;1581;51.568;6.998;2023-11-21T07:22:22;100684.56;;;10.74;100.00
3142;BME280;1581;51.568;6.998;2023-11-21T07:24:50;100685.41;;;10.75;100.00
3142;BME280;1581;51.568;6.998;2023-11-21T07:27:18;100685.56;;;10.73;100.00
3142;BME280;1581;51.568;6.998;2023-11-21T07:29:47;100689.72;;;10.76;100.00
3142;BME280;1581;51.568;6.998;2023-11-21T07:32:15;100688.56;;;10.85;100.00
3142;BME280;1581;51.568;6.998;2023-11-21T07:34:43;100690.16;;;10.79;100.00
3142;BME280;1581;51.568;6.998;2023-11-21T07:37:10;100698.16;;;10.79;100.00
3142;BME280;1581;51.568;6.998;2023-11-21T07:39:38;100703.34;;;10.87;100.00
3142;BME280;1581;51.568;6.998;2023-11-21T07:42:09;100704.63;;;10.91;100.00
3142;BME280;1581;51.568;6.998;2023-11-21T07:44:36;100702.41;;;10.95;100.00
3142;BME280;1581;51.568;6.998;2023-11-21T07:47:06;100702.41;;;10.95;100.00
3142;BME280;1581;51.568;6.998;2023-11-21T07:49:33;100699.16;;;10.99;100.00
3142;BME280;1581;51.568;6.998;2023-11-21T07:52:02;100706.13;;;11.00;100.00
3142;BME280;1581;51.568;6.998;2023-11-21T07:54:30;100705.94;;;11.02;100.00
3142;BME280;1581;51.568;6.998;2023-11-21T07:56:58;100714.81;;;11.09;100.00
3142;BME280;1581;51.568;6.998;2023-11-21T07:59:25;100718.69;;;11.06;100.00
3142;BME280;1581;51.568;6.998;2023-11-21T08:01:53;100733.88;;;11.06;100.00
3142;BME280;1581;51.568;6.998;2023-11-21T08:04:22;100739.28;;;11.12;100.00
3142;BME280;1581;51.568;6.998;2023-11-21T08:06:49;100750.69;;;11.06;100.00
3142;BME280;1581;51.568;6.998;2023-11-21T08:09:17;100750.56;;;11.14;100.00
3142;BME280;1581;51.568;6.998;2023-11-21T08:11:45;100757.38;;;11.16;100.00
3142;BME280;1581;51.568;6.998;2023-11-21T08:14:12;100767.19;;;11.16;100.00
3142;BME280;1581;51.568;6.998;2023-11-21T08:16:43;100782.44;;;11.22;100.00
3142;BME280;1581;51.568;6.998;2023-11-21T08:19:11;100774.56;;;11.14;100.00
3142;BME280;1581;51.568;6.998;2023-11-21T08:21:40;100782.81;;;11.19;100.00
3142;BME280;1581;51.568;6.998;2023-11-21T08:24:08;100784.22;;;11.15;100.00
3142;BME280;1581;51.568;6.998;2023-11-21T08:26:37;100787.28;;;11.12;100.00
3142;BME280;1581;51.568;6.998;2023-11-21T08:29:05;100793.84;;;11.16;100.00
3142;BME280;1581;51.568;6.998;2023-11-21T08:31:36;100796.59;;;11.22;100.00
3142;BME280;1581;51.568;6.998;2023-11-21T08:34:04;100795.59;;;11.23;100.00
3142;BME280;1581;51.568;6.998;2023-11-21T08:36:32;100797.91;;;11.33;100.00
3142;BME280;1581;51.568;6.998;2023-11-21T08:39:04;100798.88;;;11.25;100.00
3142;BME280;1581;51.568;6.998;2023-11-21T08:41:34;100804.22;;;11.25;100.00
3142;BME280;1581;51.568;6.998;2023-11-21T08:44:06;100804.88;;;11.27;100.00
3142;BME280;1581;51.568;6.998;2023-11-21T08:46:34;100804.22;;;11.25;100.00
3142;BME280;1581;51.568;6.998;2023-11-21T08:49:03;100812.91;;;11.34;100.00
3142;BME280;1581;51.568;6.998;2023-11-21T08:51:30;100810.88;;;11.36;100.00
3142;BME280;1581;51.568;6.998;2023-11-21T08:53:58;100809.47;;;11.40;100.00
3142;BME280;1581;51.568;6.998;2023-11-21T08:56:29;100817.09;;;11.43;100.00
3142;BME280;1581;51.568;6.998;2023-11-21T08:58:57;100811.13;;;11.41;100.00
3142;BME280;1581;51.568;6.998;2023-11-21T09:01:26;100820.81;;;11.48;100.00
3142;BME280;1581;51.568;6.998;2023-11-21T09:03:54;100828.81;;;11.63;100.00
3142;BME280;1581;51.568;6.998;2023-11-21T09:06:21;100834.44;;;11.74;100.00
3142;BME280;1581;51.568;6.998;2023-11-21T09:08:49;100842.25;;;11.76;100.00
3142;BME280;1581;51.568;6.998;2023-11-21T09:11:17;100843.75;;;11.85;100.00
3142;BME280;1581;51.568;6.998;2023-11-21T09:13:46;100843.53;;;11.80;100.00
3142;BME280;1581;51.568;6.998;2023-11-21T09:16:14;100848.81;;;11.73;100.00
3142;BME280;1581;51.568;6.998;2023-11-21T09:18:42;100842.25;;;11.76;100.00
3142;BME280;1581;51.568;6.998;2023-11-21T09:21:11;100847.41;;;11.77;100.00
3142;BME280;1581;51.568;6.998;2023-11-21T09:23:38;100852.94;;;11.76;100.00
3142;BME280;1581;51.568;6.998;2023-11-21T09:26:06;100851.84;;;11.70;100.00
3142;BME280;1581;51.568;6.998;2023-11-21T09:28:33;100858.84;;;11.71;100.00
3142;BME280;1581;51.568;6.998;2023-11-21T09:31:05;100853.50;;;11.71;100.00
3142;BME280;1581;51.568;6.998;2023-11-21T09:33:35;100861.59;;;11.57;100.00
3142;BME280;1581;51.568;6.998;2023-11-21T09:36:05;100861.91;;;11.47;100.00
3142;BME280;1581;51.568;6.998;2023-11-21T09:38:33;100866.53;;;11.39;100.00
3142;BME280;1581;51.568;6.998;2023-11-21T09:41:02;100872.38;;;11.49;100.00
3142;BME280;1581;51.568;6.998;2023-11-21T09:43:31;100875.13;;;11.55;100.00
3142;BME280;1581;51.568;6.998;2023-11-21T09:46:02;100880.00;;;11.52;100.00
3142;BME280;1581;51.568;6.998;2023-11-21T09:48:39;100884.09;;;11.69;100.00
3142;BME280;1581;51.568;6.998;2023-11-21T09:51:08;100877.53;;;11.71;100.00
3142;BME280;1581;51.568;6.998;2023-11-21T09:53:37;100880.69;;;11.81;100.00
3142;BME280;1581;51.568;6.998;2023-11-21T09:56:06;100876.88;;;11.90;100.00
3142;BME280;1581;51.568;6.998;2023-11-21T09:58:35;100880.59;;;11.96;100.00
3142;BME280;1581;51.568;6.998;2023-11-21T10:01:04;100881.03;;;11.99;100.00
3142;BME280;1581;51.568;6.998;2023-11-21T10:03:37;100884.97;;;12.03;100.00
3142;BME280;1581;51.568;6.998;2023-11-21T10:06:07;100883.19;;;12.10;100.00
3142;BME280;1581;51.568;6.998;2023-11-21T10:08:37;100886.97;;;12.22;100.00
3142;BME280;1581;51.568;6.998;2023-11-21T10:11:06;100887.66;;;12.30;100.00
3142;BME280;1581;51.568;6.998;2023-11-21T10:13:37;100886.66;;;12.38;100.00
3142;BME280;1581;51.568;6.998;2023-11-21T10:16:08;100880.03;;;12.68;100.00
3142;BME280;1581;51.568;6.998;2023-11-21T10:18:39;100889.03;;;12.94;100.00
3142;BME280;1581;51.568;6.998;2023-11-21T10:21:07;100897.28;;;12.99;100.00
3142;BME280;1581;51.568;6.998;2023-11-21T10:23:35;100905.53;;;12.97;100.00
3142;BME280;1581;51.568;6.998;2023-11-21T10:26:04;100912.50;;;12.92;100.00
3142;BME280;1581;51.568;6.998;2023-11-21T10:28:36;100911.69;;;12.98;100.00
3142;BME280;1581;51.568;6.998;2023-11-21T10:31:07;100916.84;;;13.06;100.00
3142;BME280;1581;51.568;6.998;2023-11-21T10:33:40;100921.81;;;13.09;100.00
3142;BME280;1581;51.568;6.998;2023-11-21T10:36:08;100916.41;;;12.96;100.00
3142;BME280;1581;51.568;6.998;2023-11-21T10:38:43;100916.22;;;12.97;100.00
3142;BME280;1581;51.568;6.998;2023-11-21T10:41:12;100911.09;;;13.02;100.00
3142;BME280;1581;51.568;6.998;2023-11-21T10:43:42;100909.66;;;13.13;100.00
3142;BME280;1581;51.568;6.998;2023-11-21T10:46:10;100908.66;;;13.14;100.00
3142;BME280;1581;51.568;6.998;2023-11-21T10:48:39;100923.81;;;13.00;100.00
3142;BME280;1581;51.568;6.998;2023-11-21T10:51:09;100917.31;;;12.76;100.00
3142;BME280;1581;51.568;6.998;2023-11-21T10:53:39;100922.41;;;12.71;100.00
3142;BME280;1581;51.568;6.998;2023-11-21T10:56:09;100937.00;;;12.68;100.00
3142;BME280;1581;51.568;6.998;2023-11-21T10:58:44;100934.38;;;12.75;100.00
3142;BME280;1581;51.568;6.998;2023-11-21T11:01:13;100941.78;;;12.73;100.00
3142;BME280;1581;51.568;6.998;2023-11-21T11:03:44;100939.53;;;12.76;100.00
3142;BME280;1581;51.568;6.998;2023-11-21T11:06:13;100936.63;;;12.71;100.00
3142;BME280;1581;51.568;6.998;2023-11-21T11:08:41;100945.75;;;12.49;100.00
3142;BME280;1581;51.568;6.998;2023-11-21T11:11:09;100942.88;;;12.51;100.00
3142;BME280;1581;51.568;6.998;2023-11-21T11:13:39;100940.69;;;12.67;100.00
3142;BME280;1581;51.568;6.998;2023-11-21T11:16:10;100938.28;;;12.72;100.00
3142;BME280;1581;51.568;6.998;2023-11-21T11:18:44;100929.16;;;12.60;100.00
3142;BME280;1581;51.568;6.998;2023-11-21T11:21:25;100940.00;;;12.52;100.00
3142;BME280;1581;51.568;6.998;2023-11-21T11:24:20;100935.16;;;12.69;100.00
3142;BME280;1581;51.568;6.998;2023-11-21T11:26:57;100939.69;;;12.68;100.00
3142;BME280;1581;51.568;6.998;2023-11-21T11:29:39;100947.31;;;12.71;100.00
3142;BME280;1581;51.568;6.998;2023-11-21T11:32:34;100946.97;;;12.47;100.00
3142;BME280;1581;51.568;6.998;2023-11-21T11:35:15;100954.47;;;12.64;100.00
3142;BME280;1581;51.568;6.998;2023-11-21T11:37:44;100954.03;;;12.61;100.00
3142;BME280;1581;51.568;6.998;2023-11-21T11:40:12;100948.09;;;12.38;100.00
3142;BME280;1581;51.568;6.998;2023-11-21T11:42:56;100957.78;;;12.39;100.00
3142;BME280;1581;51.568;6.998;2023-11-21T11:45:32;100950.94;;;12.30;100.00
3142;BME280;1581;51.568;6.998;2023-11-21T11:48:02;100950.56;;;12.33;100.00
3142;BME280;1581;51.568;6.998;2023-11-21T11:50:32;100957.06;;;12.24;100.00
3142;BME280;1581;51.568;6.998;2023-11-21T11:53:13;100958.66;;;12.18;100.00
3142;BME280;1581;51.568;6.998;2023-11-21T11:55:42;100957.78;;;12.11;100.00
3142;BME280;1581;51.568;6.998;2023-11-21T11:58:10;100966.25;;;12.15;100.00
3142;BME280;1581;51.568;6.998;2023-11-21T12:00:39;100963.56;;;12.15;100.00
3142;BME280;1581;51.568;6.998;2023-11-21T12:03:08;100960.00;;;12.08;100.00
3142;BME280;1581;51.568;6.998;2023-11-21T12:05:37;100971.81;;;12.20;100.00
3142;BME280;1581;51.568;6.998;2023-11-21T12:08:07;100969.28;;;12.12;100.00
3142;BME280;1581;51.568;6.998;2023-11-21T12:10:36;100963.31;;;12.10;100.00
3142;BME280;1581;51.568;6.998;2023-11-21T12:13:07;100971.75;;;12.13;100.00
3142;BME280;1581;51.568;6.998;2023-11-21T12:15:36;100975.84;;;12.09;100.00
3142;BME280;1581;51.568;6.998;2023-11-21T12:18:04;100978.31;;;12.11;100.00
3142;BME280;1581;51.568;6.998;2023-11-21T12:20:32;100975.97;;;12.22;100.00
3142;BME280;1581;51.568;6.998;2023-11-21T12:23:06;100981.06;;;12.17;100.00
3142;BME280;1581;51.568;6.998;2023-11-21T12:25:36;100981.44;;;12.14;100.00
3142;BME280;1581;51.568;6.998;2023-11-21T12:28:06;100978.66;;;12.02;100.00
3142;BME280;1581;51.568;6.998;2023-11-21T12:30:36;100984.00;;;12.02;100.00
3142;BME280;1581;51.568;6.998;2023-11-21T12:33:04;100992.63;;;12.03;100.00
3142;BME280;1581;51.568;6.998;2023-11-21T12:35:35;100990.53;;;11.99;100.00
3142;BME280;1581;51.568;6.998;2023-11-21T12:38:05;100990.44;;;12.07;100.00
3142;BME280;1581;51.568;6.998;2023-11-21T12:40:35;101001.63;;;12.17;100.00
3142;BME280;1581;51.568;6.998;2023-11-21T12:43:03;101007.63;;;12.25;100.00
3142;BME280;1581;51.568;6.998;2023-11-21T12:45:31;101004.72;;;12.20;100.00
3142;BME280;1581;51.568;6.998;2023-11-21T12:48:01;101008.97;;;12.36;100.00
3142;BME280;1581;51.568;6.998;2023-11-21T12:50:34;101013.03;;;12.32;100.00
3142;BME280;1581;51.568;6.998;2023-11-21T12:53:06;101017.94;;;12.28;100.00
3142;BME280;1581;51.568;6.998;2023-11-21T12:55:35;101027.34;;;12.24;100.00
3142;BME280;1581;51.568;6.998;2023-11-21T12:58:04;101026.09;;;12.20;100.00
3142;BME280;1581;51.568;6.998;2023-11-21T13:00:36;101024.44;;;12.19;100.00
3142;BME280;1581;51.568;6.998;2023-11-21T13:03:07;101023.03;;;12.23;100.00
3142;BME280;1581;51.568;6.998;2023-11-21T13:05:37;101032.09;;;12.22;100.00
3142;BME280;1581;51.568;6.998;2023-11-21T13:08:09;101030.09;;;12.31;100.00
3142;BME280;1581;51.568;6.998;2023-11-21T13:10:42;101037.66;;;12.27;100.00